This is the latest recevied weather packets stored in our database for station/object N3WAX-1. If no packets are shown the sender has not sent any weather packets the latest 10 day(s).
| Time | Temp. | Humidity | Pressure | Rain* | Wind** | Luminosity | Snow |
|---|---|---|---|---|---|---|---|
| 1777643366 | 12.22° C | 68% | 1014.8 hPa | 0 mm | - | 693 W/m² | - |
| 1777642766 | 11.67° C | 69% | 1014.8 hPa | 0 mm | - | 661 W/m² | - |
| 1777641558 | 10.56° C | 69% | 1015 hPa | 0 mm | - | 596 W/m² | - |
| 1777639715 | 10° C | 74% | 1014.8 hPa | 0 mm | - | 506 W/m² | - |
| 1777636337 | 7.78° C | 81% | 1014.8 hPa | 0 mm | - | 230 W/m² | - |
| 1777636027 | 7.78° C | 83% | 1014.9 hPa | 0 mm | - | 178 W/m² | - |
| 1777634501 | 6.67° C | 86% | 1014.6 hPa | 0 mm | - | 200 W/m² | - |
| 1777632403 | 4.44° C | 90% | 1014.4 hPa | 0 mm | - | 83 W/m² | - |
| 1777631499 | 4.44° C | 90% | 1014.3 hPa | 0 mm | - | 37 W/m² | - |
| 1777630896 | 3.89° C | 90% | 1014.4 hPa | 0 mm | - | 16 W/m² | - |
| 1777629982 | 3.89° C | 90% | 1014.4 hPa | 0 mm | - | 5 W/m² | - |
| 1777629078 | 3.89° C | 90% | 1014.3 hPa | 0 mm | - | 0 W/m² | - |
| 1777628778 | 3.89° C | 90% | 1014.3 hPa | 0 mm | - | 0 W/m² | - |
| 1777628175 | 4.44° C | 90% | 1014.4 hPa | 0 mm | - | 0 W/m² | - |
| 1777626673 | 3.89° C | 90% | 1014.3 hPa | 0 mm | - | 0 W/m² | - |
| 1777623674 | 4.44° C | 87% | 1013.7 hPa | 0 mm | - | 0 W/m² | - |
| 1777622756 | 5° C | 87% | 1013.6 hPa | 0 mm | - | 0 W/m² | - |
| 1777622172 | 5° C | 87% | 1013.6 hPa | 0 mm | - | 0 W/m² | - |
| 1777619747 | 5.56° C | 85% | 1013.3 hPa | 0 mm | - | 0 W/m² | - |
| 1777619582 | 6.11° C | 85% | 1013.3 hPa | 0 mm | - | 0 W/m² | - |
| 1777615585 | 6.67° C | 84% | 1013.1 hPa | 0 mm | - | 0 W/m² | - |
| 1777613905 | 6.67° C | 83% | 1013 hPa | 0 mm | - | 0 W/m² | - |
| 1777611754 | 7.22° C | 82% | 1012.8 hPa | 0 mm | - | 0 W/m² | - |
| 1777611448 | 7.22° C | 82% | 1012.8 hPa | 0 mm | - | 0 W/m² | - |
| 1777609327 | 7.78° C | 79% | 1012.6 hPa | 0 mm | - | 0 W/m² | - |
* Rain latest hour (hover to see other rain measurements)
** Current wind speed in m/s (hover to see current wind gust speed)